createdAt,value
2019-01-24T00:00:47.569Z,1.90
2019-01-24T00:03:14.930Z,1.90
2019-01-24T00:05:42.308Z,1.90
2019-01-24T00:08:09.824Z,2.00
2019-01-24T00:10:39.559Z,2.00
2019-01-24T00:13:07.029Z,1.90
2019-01-24T00:15:34.545Z,1.90
2019-01-24T00:18:02.023Z,1.90
2019-01-24T00:20:29.531Z,1.90
2019-01-24T00:22:57.000Z,2.00
2019-01-24T00:25:24.476Z,2.00
2019-01-24T00:27:51.861Z,2.00
2019-01-24T00:30:19.232Z,2.00
2019-01-24T00:32:46.668Z,2.00
2019-01-24T00:35:14.439Z,2.00
2019-01-24T00:37:41.801Z,2.00
2019-01-24T00:40:11.167Z,1.90
2019-01-24T00:42:38.567Z,2.00
2019-01-24T00:45:07.000Z,2.00
2019-01-24T00:47:34.373Z,2.00
2019-01-24T00:50:01.710Z,2.00
2019-01-24T00:52:29.189Z,2.10
2019-01-24T00:54:56.658Z,2.10
2019-01-24T00:57:24.034Z,2.10
2019-01-24T00:59:51.487Z,2.00
2019-01-24T01:02:18.968Z,2.00
2019-01-24T01:04:46.477Z,2.10
2019-01-24T01:07:13.984Z,2.10
2019-01-24T01:09:41.478Z,2.10
2019-01-24T01:12:08.966Z,2.10
2019-01-24T01:14:36.922Z,2.00
2019-01-24T01:17:04.441Z,2.10
2019-01-24T01:19:31.920Z,2.00
2019-01-24T01:21:59.397Z,2.10
2019-01-24T01:24:26.893Z,2.00
2019-01-24T01:26:54.283Z,1.90
2019-01-24T01:29:21.752Z,1.90
2019-01-24T01:31:49.210Z,1.90
2019-01-24T01:34:16.691Z,1.90
2019-01-24T01:36:44.167Z,2.00
2019-01-24T01:39:11.645Z,1.90
2019-01-24T01:41:39.103Z,1.80
2019-01-24T01:44:06.618Z,1.90
2019-01-24T01:46:33.971Z,1.90
2019-01-24T01:49:01.346Z,1.90
2019-01-24T01:51:28.797Z,1.90
2019-01-24T01:53:56.276Z,1.90
2019-01-24T01:56:23.712Z,1.90
2019-01-24T01:58:51.100Z,1.80
2019-01-24T02:01:18.578Z,1.80
2019-01-24T02:03:46.055Z,1.80
2019-01-24T02:06:13.457Z,1.80
2019-01-24T02:08:40.932Z,1.80
2019-01-24T02:11:08.423Z,1.90
2019-01-24T02:13:35.777Z,1.80
2019-01-24T02:16:03.411Z,1.80
2019-01-24T02:18:30.754Z,1.80
2019-01-24T02:20:58.097Z,1.90
2019-01-24T02:23:25.551Z,1.90
2019-01-24T02:25:53.046Z,2.00
2019-01-24T02:28:39.911Z,2.00
2019-01-24T02:31:07.684Z,2.10
2019-01-24T02:33:35.054Z,2.00
2019-01-24T02:36:02.663Z,2.00
2019-01-24T02:38:30.188Z,2.00
2019-01-24T02:40:57.628Z,1.90
2019-01-24T02:43:25.139Z,1.90
2019-01-24T02:45:52.496Z,1.80
2019-01-24T02:48:19.958Z,1.80
2019-01-24T02:50:47.470Z,1.80
2019-01-24T02:53:14.929Z,1.70
2019-01-24T02:55:42.350Z,1.80
2019-01-24T02:58:09.821Z,1.90
2019-01-24T03:00:37.176Z,1.80
2019-01-24T03:03:04.669Z,1.80
2019-01-24T03:05:32.039Z,1.80
2019-01-24T03:07:59.478Z,1.80
2019-01-24T03:10:27.005Z,1.80
2019-01-24T03:12:54.455Z,1.80
2019-01-24T03:15:22.021Z,1.80
2019-01-24T03:17:49.798Z,1.80
2019-01-24T03:20:17.273Z,1.80
2019-01-24T03:22:45.195Z,1.80
2019-01-24T03:25:13.163Z,1.90
2019-01-24T03:27:40.604Z,1.90
2019-01-24T03:30:11.043Z,1.80
2019-01-24T03:32:40.772Z,1.80
2019-01-24T03:35:11.150Z,1.90
2019-01-24T03:37:38.663Z,1.80
2019-01-24T03:40:07.965Z,1.80
2019-01-24T03:42:35.403Z,1.80
2019-01-24T03:45:04.337Z,1.70
2019-01-24T03:47:31.819Z,1.70
2019-01-24T03:49:59.321Z,1.70
2019-01-24T03:52:26.774Z,1.70
2019-01-24T03:54:54.135Z,1.60
2019-01-24T03:57:21.595Z,1.60
2019-01-24T03:59:49.185Z,1.60
2019-01-24T04:02:16.670Z,1.60
2019-01-24T04:04:44.167Z,1.50
2019-01-24T04:07:11.607Z,1.50
2019-01-24T04:09:39.090Z,1.50
2019-01-24T04:12:08.376Z,1.50
2019-01-24T04:14:35.808Z,1.40
2019-01-24T04:17:03.289Z,1.50
2019-01-24T04:19:30.752Z,1.40
2019-01-24T04:21:58.233Z,1.50
2019-01-24T04:24:25.680Z,1.50
2019-01-24T04:26:53.131Z,1.50
2019-01-24T04:29:20.542Z,1.40
2019-01-24T04:31:47.934Z,1.40
2019-01-24T04:34:15.304Z,1.50
2019-01-24T04:36:42.787Z,1.50
2019-01-24T04:39:10.302Z,1.40
2019-01-24T04:41:37.672Z,1.40
2019-01-24T04:44:05.064Z,1.40
2019-01-24T04:46:32.521Z,1.50
2019-01-24T04:48:59.946Z,1.50
2019-01-24T04:51:29.429Z,1.40
2019-01-24T04:53:56.921Z,1.30
2019-01-24T04:56:24.370Z,1.30
2019-01-24T04:58:51.762Z,1.20
2019-01-24T05:01:19.264Z,1.20
2019-01-24T05:03:46.763Z,1.20
2019-01-24T05:06:14.221Z,1.10
2019-01-24T05:08:41.698Z,1.10
2019-01-24T05:11:09.174Z,1.00
2019-01-24T05:13:36.636Z,1.00
2019-01-24T05:16:04.022Z,1.00
2019-01-24T05:18:31.449Z,0.90
2019-01-24T05:20:58.832Z,0.90
2019-01-24T05:23:26.284Z,0.90
2019-01-24T05:25:53.670Z,0.80
2019-01-24T05:28:21.091Z,0.80
2019-01-24T05:30:48.532Z,0.80
2019-01-24T05:33:16.016Z,0.80
2019-01-24T05:35:43.482Z,0.80
2019-01-24T05:38:10.860Z,0.70
2019-01-24T05:40:38.313Z,0.70
2019-01-24T05:43:05.705Z,0.70
2019-01-24T05:45:33.068Z,0.70
2019-01-24T05:48:00.558Z,0.70
2019-01-24T05:50:28.019Z,0.70
2019-01-24T05:52:55.521Z,0.70
2019-01-24T05:55:22.965Z,0.70
2019-01-24T05:57:50.406Z,0.80
2019-01-24T06:00:24.896Z,0.80
2019-01-24T06:02:52.392Z,0.80
2019-01-24T06:05:19.923Z,0.90
2019-01-24T06:07:47.372Z,0.90
2019-01-24T06:10:14.803Z,0.90
2019-01-24T06:12:42.199Z,1.00
2019-01-24T06:15:11.899Z,0.90
2019-01-24T06:17:39.338Z,0.90
2019-01-24T06:20:06.968Z,0.80
2019-01-24T06:22:34.451Z,0.80
2019-01-24T06:25:02.056Z,0.80
2019-01-24T06:27:29.643Z,0.80
2019-01-24T06:29:57.226Z,0.80
2019-01-24T06:32:24.681Z,0.80
2019-01-24T06:34:52.191Z,0.90
2019-01-24T06:37:19.583Z,0.90
2019-01-24T06:39:47.135Z,0.90
2019-01-24T06:42:14.625Z,1.00
2019-01-24T06:44:42.121Z,1.00
2019-01-24T06:47:09.569Z,1.00
2019-01-24T06:49:36.970Z,1.10
2019-01-24T06:52:04.545Z,1.10
2019-01-24T06:54:31.948Z,1.00
2019-01-24T06:56:59.405Z,1.10
2019-01-24T06:59:26.845Z,1.10
2019-01-24T07:01:54.368Z,1.10
2019-01-24T07:04:21.848Z,1.10
2019-01-24T07:06:49.195Z,1.10
2019-01-24T07:09:18.139Z,1.10
2019-01-24T07:11:45.585Z,1.20
2019-01-24T07:14:14.663Z,1.10
2019-01-24T07:16:44.137Z,1.00
2019-01-24T07:19:12.559Z,0.90
2019-01-24T07:21:40.028Z,0.90
2019-01-24T07:24:07.544Z,0.80
2019-01-24T07:26:35.019Z,0.80
2019-01-24T07:29:04.291Z,0.80
2019-01-24T07:31:31.790Z,0.80
2019-01-24T07:33:59.355Z,0.90
2019-01-24T07:36:26.855Z,0.90
2019-01-24T07:38:54.373Z,0.90
2019-01-24T07:41:21.883Z,0.90
2019-01-24T07:43:50.718Z,0.90
2019-01-24T07:46:18.327Z,0.90
2019-01-24T07:48:46.161Z,0.70
2019-01-24T07:51:15.206Z,0.70
2019-01-24T07:53:42.671Z,0.70
2019-01-24T07:56:10.313Z,0.60
2019-01-24T07:58:37.796Z,0.70
2019-01-24T08:01:05.408Z,0.70
2019-01-24T08:03:33.252Z,0.70
2019-01-24T08:06:00.656Z,0.70
2019-01-24T08:08:28.081Z,0.70
2019-01-24T08:10:55.574Z,0.60
2019-01-24T08:13:23.121Z,0.60
2019-01-24T08:15:50.614Z,0.60
2019-01-24T08:18:17.992Z,0.60
2019-01-24T08:20:45.589Z,0.60
2019-01-24T08:23:13.032Z,0.60
2019-01-24T08:25:40.446Z,0.60
2019-01-24T08:28:07.846Z,0.60
2019-01-24T08:30:35.313Z,0.70
2019-01-24T08:33:02.928Z,0.70
2019-01-24T08:35:30.849Z,0.80
2019-01-24T08:37:58.348Z,0.70
2019-01-24T08:40:25.800Z,0.80
2019-01-24T08:42:53.298Z,0.90
2019-01-24T08:45:20.771Z,0.90
2019-01-24T08:47:48.274Z,0.90
2019-01-24T08:50:18.503Z,0.90
2019-01-24T08:52:46.420Z,0.90
2019-01-24T08:55:20.130Z,0.90
2019-01-24T08:57:47.660Z,0.90
2019-01-24T09:00:17.085Z,0.90
2019-01-24T09:02:44.672Z,1.00
2019-01-24T09:05:12.407Z,1.00
2019-01-24T09:07:40.844Z,1.00
2019-01-24T09:10:10.963Z,1.10
2019-01-24T09:12:38.410Z,1.30
2019-01-24T09:15:07.116Z,1.40
2019-01-24T09:17:34.520Z,1.50
2019-01-24T09:20:02.002Z,1.60
2019-01-24T09:22:29.517Z,1.70
2019-01-24T09:24:56.971Z,1.90
2019-01-24T09:27:24.522Z,2.00
2019-01-24T09:29:51.984Z,2.20
2019-01-24T09:32:19.492Z,2.40
2019-01-24T09:34:46.982Z,2.50
2019-01-24T09:37:14.477Z,2.60
2019-01-24T09:39:41.970Z,2.70
2019-01-24T09:42:09.443Z,2.80
2019-01-24T09:44:36.896Z,2.80
2019-01-24T09:47:04.726Z,2.80
2019-01-24T09:49:32.210Z,2.80
2019-01-24T09:51:59.588Z,2.90
2019-01-24T09:54:27.052Z,3.10
2019-01-24T09:56:54.501Z,3.10
2019-01-24T09:59:22.004Z,3.40
2019-01-24T10:01:49.387Z,3.50
2019-01-24T10:04:16.771Z,3.60
2019-01-24T10:06:44.233Z,3.70
2019-01-24T10:09:11.603Z,3.60
2019-01-24T10:11:39.082Z,3.70
2019-01-24T10:14:06.570Z,3.70
2019-01-24T10:16:34.846Z,3.70
2019-01-24T10:19:02.247Z,3.70
2019-01-24T10:21:29.881Z,3.70
2019-01-24T10:23:57.348Z,3.60
2019-01-24T10:26:24.880Z,3.70
2019-01-24T10:28:52.429Z,3.70
2019-01-24T10:31:19.910Z,3.80
2019-01-24T10:33:47.401Z,3.90
2019-01-24T10:36:15.101Z,4.20
2019-01-24T10:38:42.636Z,4.30
2019-01-24T10:41:12.109Z,4.40
2019-01-24T10:43:39.564Z,4.40
2019-01-24T10:46:07.123Z,4.30
2019-01-24T10:48:34.599Z,4.20
2019-01-24T10:51:04.863Z,4.30
2019-01-24T10:53:32.397Z,4.40
2019-01-24T10:55:59.869Z,4.50
2019-01-24T10:58:27.373Z,4.50
2019-01-24T11:00:55.003Z,4.50
2019-01-24T11:03:22.482Z,4.50
2019-01-24T11:05:49.939Z,4.50
2019-01-24T11:08:17.309Z,4.40
2019-01-24T11:10:44.865Z,4.40
2019-01-24T11:13:12.317Z,4.30
2019-01-24T11:15:39.924Z,4.30
2019-01-24T11:18:07.509Z,4.30
2019-01-24T11:20:34.975Z,4.20
2019-01-24T11:23:02.439Z,4.20
2019-01-24T11:25:29.943Z,4.10
2019-01-24T11:27:57.569Z,4.10
2019-01-24T11:30:27.113Z,4.10
2019-01-24T11:32:54.886Z,4.10
2019-01-24T11:35:24.899Z,4.10
2019-01-24T11:37:52.757Z,4.00
2019-01-24T11:40:20.236Z,4.10
2019-01-24T11:42:47.921Z,4.20
2019-01-24T11:45:16.301Z,4.20
2019-01-24T11:47:43.669Z,4.20
2019-01-24T11:50:13.665Z,4.20
2019-01-24T11:52:41.158Z,4.30
2019-01-24T11:55:09.664Z,4.30
2019-01-24T11:57:37.117Z,4.40
2019-01-24T12:00:17.059Z,4.30
2019-01-24T12:02:44.511Z,4.20
2019-01-24T12:05:11.965Z,4.30
2019-01-24T12:07:39.458Z,4.40
2019-01-24T12:10:09.427Z,4.40
2019-01-24T12:12:36.931Z,4.50
2019-01-24T12:15:06.469Z,4.60
2019-01-24T12:17:34.162Z,4.80
2019-01-24T12:20:01.569Z,5.40
2019-01-24T12:22:28.951Z,6.20
2019-01-24T12:24:56.434Z,6.70
2019-01-24T12:27:23.922Z,7.00
2019-01-24T12:29:51.510Z,7.30
2019-01-24T12:32:18.957Z,7.90
2019-01-24T12:34:46.336Z,8.10
2019-01-24T12:37:13.852Z,8.10
2019-01-24T12:39:41.307Z,8.10
2019-01-24T12:42:08.770Z,7.90
2019-01-24T12:44:36.267Z,7.80
2019-01-24T12:47:07.038Z,7.80
2019-01-24T12:49:34.419Z,7.50
2019-01-24T12:52:01.931Z,7.30
2019-01-24T12:54:29.426Z,7.30
2019-01-24T12:56:57.002Z,7.20
2019-01-24T12:59:24.541Z,7.00
2019-01-24T13:01:52.049Z,6.90
2019-01-24T13:04:19.535Z,6.80
2019-01-24T13:06:47.068Z,6.70
2019-01-24T13:09:14.552Z,6.20
2019-01-24T13:11:42.063Z,6.10
2019-01-24T13:14:09.589Z,6.10
2019-01-24T13:16:37.092Z,6.00
2019-01-24T13:19:04.626Z,5.80
2019-01-24T13:21:32.788Z,5.50
2019-01-24T13:24:00.314Z,5.60
2019-01-24T13:26:28.174Z,5.50
2019-01-24T13:28:55.645Z,5.50
2019-01-24T13:31:24.011Z,5.40
2019-01-24T13:33:51.986Z,5.30
2019-01-24T13:36:19.494Z,5.20
2019-01-24T13:38:46.960Z,5.20
2019-01-24T13:41:14.490Z,5.00
2019-01-24T13:43:42.340Z,5.00
2019-01-24T13:46:10.347Z,4.90
2019-01-24T13:48:37.903Z,4.80
2019-01-24T13:51:06.581Z,4.70
2019-01-24T13:53:34.016Z,4.60
2019-01-24T13:56:01.512Z,4.50
2019-01-24T13:58:29.028Z,4.40
2019-01-24T14:00:56.516Z,4.50
2019-01-24T14:03:42.530Z,4.40
2019-01-24T14:06:10.125Z,4.20
2019-01-24T14:08:37.591Z,4.10
2019-01-24T14:11:05.124Z,4.10
2019-01-24T14:13:35.308Z,4.10
2019-01-24T14:16:03.198Z,4.00
2019-01-24T14:18:30.736Z,4.00
2019-01-24T14:20:58.182Z,4.00
2019-01-24T14:23:25.714Z,4.00
2019-01-24T14:25:53.138Z,4.00
2019-01-24T14:28:20.645Z,4.00
2019-01-24T14:30:48.182Z,4.00
2019-01-24T14:33:15.684Z,4.00
2019-01-24T14:35:43.211Z,4.00
2019-01-24T14:38:10.664Z,3.90
2019-01-24T14:40:38.124Z,3.90
2019-01-24T14:43:05.606Z,3.90
2019-01-24T14:45:35.630Z,3.90
2019-01-24T14:48:03.254Z,4.00
2019-01-24T14:50:30.843Z,4.00
2019-01-24T14:52:58.748Z,4.00
2019-01-24T14:55:26.145Z,3.90
2019-01-24T14:57:53.620Z,4.00
2019-01-24T15:00:32.756Z,4.00
2019-01-24T15:03:00.242Z,4.00
2019-01-24T15:05:27.792Z,3.90
2019-01-24T15:07:55.299Z,3.90
2019-01-24T15:10:23.486Z,3.80
2019-01-24T15:12:51.095Z,3.80
2019-01-24T15:15:20.219Z,3.80
2019-01-24T15:17:47.610Z,3.70
2019-01-24T15:20:16.518Z,3.70
2019-01-24T15:22:44.495Z,3.70
2019-01-24T15:25:12.429Z,3.70
2019-01-24T15:27:39.799Z,3.60
2019-01-24T15:30:10.757Z,3.60
2019-01-24T15:32:38.395Z,3.60
2019-01-24T15:35:06.326Z,3.60
2019-01-24T15:37:34.095Z,3.60
2019-01-24T15:40:01.577Z,3.60
2019-01-24T15:42:29.105Z,3.60
2019-01-24T15:44:56.541Z,3.60
2019-01-24T15:47:24.052Z,3.60
2019-01-24T15:49:51.549Z,3.60
2019-01-24T15:52:19.161Z,3.60
2019-01-24T15:54:46.725Z,3.50
2019-01-24T15:57:14.227Z,3.50
2019-01-24T15:59:41.668Z,3.50
2019-01-24T16:02:09.198Z,3.60
2019-01-24T16:04:38.509Z,3.60
2019-01-24T16:07:05.973Z,3.50
2019-01-24T16:09:33.817Z,3.50
2019-01-24T16:12:01.306Z,3.50
2019-01-24T16:14:28.883Z,3.50
2019-01-24T16:16:57.289Z,3.50
2019-01-24T16:19:25.874Z,3.50
2019-01-24T16:21:53.355Z,3.40
2019-01-24T16:24:20.892Z,3.40
2019-01-24T16:26:48.346Z,3.40
2019-01-24T16:29:16.251Z,3.30
2019-01-24T16:31:43.695Z,3.30
2019-01-24T16:34:11.269Z,3.30
2019-01-24T16:36:39.201Z,3.20
2019-01-24T16:39:10.847Z,3.20
2019-01-24T16:41:38.343Z,3.20
2019-01-24T16:44:05.832Z,3.10
2019-01-24T16:46:33.353Z,3.10
2019-01-24T16:49:00.890Z,3.10
2019-01-24T16:51:29.341Z,3.10
2019-01-24T16:53:56.830Z,3.00
2019-01-24T16:56:24.711Z,3.00
2019-01-24T16:58:52.160Z,3.00
2019-01-24T17:01:21.392Z,2.90
2019-01-24T17:03:48.912Z,2.90
2019-01-24T17:06:16.421Z,2.90
2019-01-24T17:08:44.954Z,2.90
2019-01-24T17:11:12.417Z,2.90
2019-01-24T17:13:39.872Z,2.90
2019-01-24T17:16:08.284Z,2.90
2019-01-24T17:18:35.814Z,2.80
2019-01-24T17:21:03.633Z,2.80
2019-01-24T17:23:31.124Z,2.80
2019-01-24T17:25:58.476Z,2.80
2019-01-24T17:28:25.952Z,2.80
2019-01-24T17:30:53.475Z,2.80
2019-01-24T17:33:20.872Z,2.80
2019-01-24T17:35:48.411Z,2.80
2019-01-24T17:38:15.874Z,2.80
2019-01-24T17:40:43.479Z,2.90
2019-01-24T17:43:12.028Z,2.80
2019-01-24T17:45:39.549Z,2.80
2019-01-24T17:48:07.038Z,2.80
2019-01-24T17:50:34.482Z,2.80
2019-01-24T17:53:02.000Z,2.80
2019-01-24T17:55:38.005Z,2.80
2019-01-24T17:58:07.822Z,2.70
2019-01-24T18:00:38.698Z,2.70
2019-01-24T18:03:06.049Z,2.70
2019-01-24T18:05:33.782Z,2.60
2019-01-24T18:08:01.236Z,2.60
2019-01-24T18:10:28.748Z,2.60
2019-01-24T18:12:56.345Z,2.50
2019-01-24T18:15:26.868Z,2.50
2019-01-24T18:17:54.374Z,2.40
2019-01-24T18:20:23.758Z,2.40
2019-01-24T18:22:51.444Z,2.30
2019-01-24T18:25:19.585Z,2.30
2019-01-24T18:27:47.021Z,2.30
2019-01-24T18:30:17.115Z,2.30
2019-01-24T18:32:44.944Z,2.20
2019-01-24T18:35:12.480Z,2.10
2019-01-24T18:37:39.994Z,2.00
2019-01-24T18:40:10.562Z,1.90
2019-01-24T18:42:40.861Z,1.80
2019-01-24T18:45:13.953Z,1.70
2019-01-24T18:47:41.462Z,1.70
2019-01-24T18:50:12.631Z,1.60
2019-01-24T18:52:40.181Z,1.50
2019-01-24T18:55:08.088Z,1.40
2019-01-24T18:57:37.814Z,1.40
2019-01-24T19:00:07.644Z,1.30
2019-01-24T19:02:35.118Z,1.30
2019-01-24T19:05:03.021Z,1.20
2019-01-24T19:07:30.904Z,1.20
2019-01-24T19:09:58.443Z,0.90
2019-01-24T19:12:25.806Z,0.80
2019-01-24T19:14:53.362Z,0.70
2019-01-24T19:17:20.775Z,0.70
2019-01-24T19:19:48.334Z,0.70
2019-01-24T19:22:15.855Z,0.60
2019-01-24T19:24:43.383Z,0.60
2019-01-24T19:27:10.977Z,0.50
2019-01-24T19:29:38.468Z,0.50
2019-01-24T19:32:05.871Z,0.50
2019-01-24T19:34:33.381Z,0.50
2019-01-24T19:37:00.874Z,0.40
2019-01-24T19:39:28.331Z,0.30
2019-01-24T19:41:55.810Z,0.30
2019-01-24T19:44:23.291Z,0.30
2019-01-24T19:46:50.794Z,0.20
2019-01-24T19:49:25.536Z,0.20
2019-01-24T19:51:53.033Z,0.20
2019-01-24T19:54:22.825Z,0.20
2019-01-24T19:56:50.543Z,0.20
2019-01-24T19:59:23.378Z,0.20
2019-01-24T20:01:54.357Z,0.10
2019-01-24T20:04:21.790Z,0.10
2019-01-24T20:06:49.326Z,0.10
2019-01-24T20:09:16.866Z,0.00
2019-01-24T20:11:47.171Z,0.00
2019-01-24T20:14:17.425Z,-0.10
2019-01-24T20:16:47.968Z,-0.10
2019-01-24T20:19:15.481Z,-0.20
2019-01-24T20:21:43.856Z,-0.20
2019-01-24T20:24:11.320Z,-0.30
2019-01-24T20:26:42.018Z,-0.30
2019-01-24T20:29:09.558Z,-0.30
2019-01-24T20:31:37.291Z,-0.40
2019-01-24T20:34:12.198Z,-0.40
2019-01-24T20:36:42.775Z,-0.40
2019-01-24T20:39:10.336Z,-0.50
2019-01-24T20:41:38.087Z,-0.50
2019-01-24T20:44:08.183Z,-0.60
2019-01-24T20:46:35.692Z,-0.60
2019-01-24T20:49:03.391Z,-0.70
2019-01-24T20:51:30.968Z,-0.70
2019-01-24T20:53:58.638Z,-0.80
2019-01-24T20:56:26.205Z,-0.80
2019-01-24T20:58:53.910Z,-0.80
2019-01-24T21:01:24.291Z,-0.80
2019-01-24T21:03:55.455Z,-0.90
2019-01-24T21:06:23.414Z,-1.00
2019-01-24T21:08:50.948Z,-1.00
2019-01-24T21:11:21.977Z,-1.00
2019-01-24T21:13:52.210Z,-1.10
2019-01-24T21:16:19.838Z,-1.20
2019-01-24T21:18:47.435Z,-1.20
2019-01-24T21:21:15.070Z,-1.30
2019-01-24T21:23:42.746Z,-1.30
2019-01-24T21:26:10.238Z,-1.40
2019-01-24T21:28:37.752Z,-1.40
2019-01-24T21:31:05.331Z,-1.50
2019-01-24T21:33:33.018Z,-1.60
2019-01-24T21:36:02.710Z,-1.50
2019-01-24T21:38:33.021Z,-1.60
2019-01-24T21:41:02.561Z,-1.60
2019-01-24T21:43:33.237Z,-1.60
2019-01-24T21:46:02.216Z,-1.60
2019-01-24T21:48:29.770Z,-1.50
2019-01-24T21:50:57.294Z,-1.60
2019-01-24T21:53:24.897Z,-1.60
2019-01-24T21:55:52.456Z,-1.60
2019-01-24T21:58:21.087Z,-1.60
2019-01-24T22:00:48.682Z,-1.70
2019-01-24T22:03:16.232Z,-1.70
2019-01-24T22:05:43.762Z,-1.70
2019-01-24T22:08:11.418Z,-1.60
2019-01-24T22:10:38.923Z,-1.60
2019-01-24T22:13:06.436Z,-1.60
2019-01-24T22:15:34.091Z,-1.60
2019-01-24T22:18:05.296Z,-1.70
2019-01-24T22:20:32.815Z,-1.50
2019-01-24T22:23:00.309Z,-1.60
2019-01-24T22:25:31.183Z,-1.60
2019-01-24T22:27:58.822Z,-1.70
2019-01-24T22:30:37.934Z,-1.50
2019-01-24T22:33:05.668Z,-1.50
2019-01-24T22:35:33.173Z,-1.50
2019-01-24T22:38:00.736Z,-1.50
2019-01-24T22:40:28.276Z,-1.50
2019-01-24T22:42:55.835Z,-1.50
2019-01-24T22:45:23.780Z,-1.40
2019-01-24T22:47:51.288Z,-1.40
2019-01-24T22:50:19.171Z,-1.40
2019-01-24T22:52:46.680Z,-1.40
2019-01-24T22:55:14.329Z,-1.50
2019-01-24T22:57:41.871Z,-1.50
2019-01-24T23:01:13.396Z,-1.50
2019-01-24T23:04:02.183Z,-1.50
2019-01-24T23:06:29.730Z,-1.50
2019-01-24T23:08:57.239Z,-1.50
2019-01-24T23:11:24.725Z,-1.50
2019-01-24T23:13:52.264Z,-1.50
2019-01-24T23:16:19.804Z,-1.60
2019-01-24T23:18:47.358Z,-1.60
2019-01-24T23:21:14.962Z,-1.70
2019-01-24T23:23:42.613Z,-1.70
2019-01-24T23:26:10.175Z,-1.70
2019-01-24T23:28:37.698Z,-1.70
2019-01-24T23:31:05.270Z,-1.80
2019-01-24T23:33:32.813Z,-1.90
2019-01-24T23:36:00.347Z,-2.00
2019-01-24T23:38:27.855Z,-2.00
2019-01-24T23:40:55.380Z,-2.00
2019-01-24T23:43:22.969Z,-2.10
2019-01-24T23:45:50.540Z,-2.20
2019-01-24T23:48:18.041Z,-2.10
2019-01-24T23:50:45.543Z,-2.10
2019-01-24T23:53:13.212Z,-2.20
2019-01-24T23:55:40.700Z,-2.20
2019-01-24T23:58:08.180Z,-2.10
